Time;durP1;ratioP1;P1;durP2;ratioP2;P2;SDS_P1;SDS_P2;PMS_P1;PMS_P2;Temp;Humidity;BMP_temperature;BMP_pressure;BME280_temperature;BME280_humidity;BME280_pressure;Samples;Min_cycle;Max_cycle;Signal;HPM_P1;HPM_P2
2021/11/23 00:02:37;;;;;;;1.05;0.70;;;21.10;52.30;;;;;;6213587;28;20427;-65
2021/11/23 00:05:38;;;;;;;1.40;0.80;;;21.10;52.30;;;;;;6196552;28;20026;-64
2021/11/23 00:08:40;;;;;;;1.10;0.70;;;21.10;52.40;;;;;;6209567;28;20045;-65
2021/11/23 00:11:40;;;;;;;0.80;0.60;;;21.10;52.40;;;;;;6220662;28;20014;-65
2021/11/23 00:14:41;;;;;;;1.00;0.70;;;21.10;52.40;;;;;;6199439;28;20057;-64
2021/11/23 00:17:42;;;;;;;1.67;0.60;;;21.10;52.40;;;;;;6199732;28;20054;-64
2021/11/23 00:20:44;;;;;;;1.17;0.77;;;21.10;52.40;;;;;;6220994;28;20474;-65
2021/11/23 00:23:45;;;;;;;1.00;0.70;;;21.10;52.40;;;;;;6217360;28;20151;-65
2021/11/23 00:26:45;;;;;;;0.80;0.60;;;21.10;52.40;;;;;;6195435;28;20472;-64
2021/11/23 00:29:46;;;;;;;0.63;0.60;;;21.10;52.40;;;;;;6193123;28;20062;-65
2021/11/23 00:32:48;;;;;;;0.95;0.50;;;21.00;52.30;;;;;;6201069;28;20053;-65
2021/11/23 00:35:49;;;;;;;0.70;0.63;;;21.00;52.30;;;;;;6220157;28;20056;-64
2021/11/23 00:38:50;;;;;;;1.02;0.80;;;21.10;52.40;;;;;;6197801;28;20057;-65
2021/11/23 00:41:51;;;;;;;1.10;0.80;;;21.10;52.40;;;;;;6200123;28;20040;-65
2021/11/23 00:44:53;;;;;;;1.17;0.80;;;21.00;52.40;;;;;;6219864;28;20097;-65
2021/11/23 00:47:54;;;;;;;0.70;0.60;;;21.10;52.50;;;;;;6205783;28;20519;-65
2021/11/23 00:50:55;;;;;;;0.85;0.70;;;21.00;52.40;;;;;;6195817;28;20026;-65
2021/11/23 00:53:55;;;;;;;0.93;0.63;;;21.00;52.40;;;;;;6195448;28;20027;-65
2021/11/23 00:56:56;;;;;;;0.98;0.70;;;21.00;52.50;;;;;;6195319;28;20034;-65
2021/11/23 00:59:57;;;;;;;0.65;0.45;;;21.00;52.40;;;;;;6204822;28;20065;-65
2021/11/23 01:02:58;;;;;;;1.17;0.75;;;21.00;52.50;;;;;;6219241;28;20370;-65
2021/11/23 01:06:00;;;;;;;1.33;0.80;;;21.00;52.50;;;;;;6219024;28;20030;-65
2021/11/23 01:09:01;;;;;;;1.25;0.70;;;21.00;52.50;;;;;;6218982;28;20049;-65
2021/11/23 01:12:02;;;;;;;0.80;0.50;;;21.00;52.40;;;;;;6214704;28;20018;-65
2021/11/23 01:15:05;;;;;;;0.80;0.65;;;21.00;52.40;;;;;;6219074;28;20507;-65
2021/11/23 01:18:06;;;;;;;0.63;0.60;;;21.00;52.40;;;;;;6208615;28;20045;-65
2021/11/23 01:21:09;;;;;;;1.02;0.70;;;21.00;52.40;;;;;;6194837;28;20023;-65
2021/11/23 01:24:14;;;;;;;1.08;0.60;;;21.00;52.50;;;;;;6209887;28;20121;-65
2021/11/23 01:27:14;;;;;;;1.10;0.80;;;21.00;52.50;;;;;;6206072;28;20052;-64
2021/11/23 01:30:15;;;;;;;0.57;0.50;;;21.00;52.40;;;;;;6211992;28;20026;-65
2021/11/23 01:33:17;;;;;;;0.70;0.60;;;21.00;52.40;;;;;;6211782;28;20026;-65
2021/11/23 01:36:18;;;;;;;1.42;0.75;;;21.00;52.40;;;;;;6217291;28;20026;-65
2021/11/23 01:39:19;;;;;;;0.93;0.50;;;21.00;52.40;;;;;;6217351;28;20380;-64
2021/11/23 01:42:20;;;;;;;0.77;0.60;;;21.00;52.50;;;;;;6209358;28;20038;-65
2021/11/23 01:45:20;;;;;;;0.77;0.57;;;21.00;52.50;;;;;;6193188;28;20029;-65
2021/11/23 01:48:21;;;;;;;0.50;0.50;;;21.00;52.40;;;;;;6211108;28;20025;-65
2021/11/23 01:51:22;;;;;;;1.58;0.70;;;21.00;52.40;;;;;;6218365;28;20026;-64
2021/11/23 01:54:23;;;;;;;0.65;0.47;;;21.00;52.40;;;;;;6217983;28;20494;-63
2021/11/23 01:57:23;;;;;;;1.00;0.60;;;21.00;52.40;;;;;;6216591;28;20045;-64
2021/11/23 02:00:24;;;;;;;1.10;0.88;;;21.00;52.40;;;;;;6218035;28;20033;-65
2021/11/23 02:03:25;;;;;;;0.73;0.60;;;21.00;52.40;;;;;;6203534;28;20342;-64
2021/11/23 02:06:26;;;;;;;0.75;0.70;;;21.00;52.50;;;;;;6193514;28;20032;-64
2021/11/23 02:09:27;;;;;;;0.73;0.60;;;21.00;52.50;;;;;;6210120;28;20022;-64
2021/11/23 02:12:29;;;;;;;0.70;0.60;;;21.00;52.50;;;;;;6218225;28;20096;-65
2021/11/23 02:15:30;;;;;;;1.65;0.77;;;21.00;53.20;;;;;;6191903;28;20042;-68
2021/11/23 02:18:31;;;;;;;1.63;0.90;;;21.00;52.50;;;;;;6200577;28;20033;-67
2021/11/23 02:21:32;;;;;;;0.73;0.60;;;21.00;53.10;;;;;;6215393;28;20026;-67
2021/11/23 02:24:33;;;;;;;0.90;0.70;;;21.00;52.50;;;;;;6202343;28;20582;-67
2021/11/23 02:27:33;;;;;;;1.15;0.60;;;21.00;52.50;;;;;;6216924;28;20037;-68
2021/11/23 02:30:46;;;;;;;1.63;0.68;;;21.00;52.50;;;;;;6208923;28;20027;-67
2021/11/23 02:33:47;;;;;;;0.70;0.52;;;21.00;52.50;;;;;;6213646;28;20053;-67
2021/11/23 02:36:48;;;;;;;0.80;0.70;;;21.00;52.50;;;;;;6212193;28;20673;-67
2021/11/23 02:39:49;;;;;;;0.50;0.50;;;21.00;52.50;;;;;;6192859;28;20030;-67
2021/11/23 02:42:49;;;;;;;0.70;0.70;;;21.00;52.50;;;;;;6220736;28;20037;-67
2021/11/23 02:45:51;;;;;;;0.70;0.50;;;21.00;52.50;;;;;;6217181;28;20030;-67
2021/11/23 02:48:51;;;;;;;1.25;0.70;;;21.00;52.50;;;;;;6216575;28;20026;-67
2021/11/23 02:51:52;;;;;;;0.90;0.65;;;21.00;52.40;;;;;;6216931;28;20053;-68
2021/11/23 02:54:58;;;;;;;0.70;0.60;;;21.00;52.50;;;;;;6216945;28;20180;-67
2021/11/23 02:57:59;;;;;;;0.73;0.60;;;21.00;52.40;;;;;;6205185;28;20034;-67
2021/11/23 03:01:03;;;;;;;1.15;0.60;;;21.00;52.40;;;;;;6191854;28;20081;-69
2021/11/23 03:04:04;;;;;;;1.05;0.70;;;21.00;52.40;;;;;;6191111;28;20513;-67
2021/11/23 03:07:05;;;;;;;0.93;0.60;;;21.00;52.50;;;;;;6193258;28;20018;-68
2021/11/23 03:10:09;;;;;;;1.10;0.70;;;21.00;52.50;;;;;;6215155;28;20573;-69
2021/11/23 03:13:09;;;;;;;0.75;0.55;;;21.00;52.40;;;;;;6210759;28;20250;-67
2021/11/23 03:16:10;;;;;;;0.93;0.73;;;21.00;52.50;;;;;;6192374;28;20399;-68
2021/11/23 03:19:11;;;;;;;0.65;0.55;;;21.00;52.50;;;;;;6209309;28;20690;-67
2021/11/23 03:22:13;;;;;;;0.70;0.60;;;21.00;52.50;;;;;;6216576;28;20022;-68
2021/11/23 03:25:15;;;;;;;0.57;0.57;;;21.00;52.50;;;;;;6211153;28;20432;-68
2021/11/23 03:28:16;;;;;;;0.95;0.60;;;21.00;52.50;;;;;;6210667;28;20105;-68
2021/11/23 03:31:17;;;;;;;0.82;0.63;;;21.00;52.50;;;;;;6203917;28;20033;-67
2021/11/23 03:34:17;;;;;;;1.00;0.52;;;21.00;52.50;;;;;;6220161;28;20033;-67
2021/11/23 03:37:23;;;;;;;0.60;0.50;;;21.00;52.50;;;;;;6221179;28;20444;-67
2021/11/23 03:40:26;;;;;;;0.93;0.50;;;21.00;52.50;;;;;;6221083;28;20025;-69
2021/11/23 03:43:26;;;;;;;0.57;0.50;;;21.00;52.50;;;;;;6202052;28;20073;-67
2021/11/23 03:46:27;;;;;;;0.63;0.50;;;21.00;52.50;;;;;;6198014;28;20109;-68
2021/11/23 03:49:28;;;;;;;0.70;0.60;;;21.00;52.50;;;;;;6219536;28;20018;-67
2021/11/23 03:52:29;;;;;;;0.80;0.57;;;21.00;52.50;;;;;;6221266;28;20073;-68
2021/11/23 03:55:33;;;;;;;2.15;0.70;;;21.00;52.50;;;;;;6221517;28;20420;-67
2021/11/23 03:58:34;;;;;;;0.75;0.60;;;21.00;52.50;;;;;;6220823;28;20391;-68
2021/11/23 04:01:35;;;;;;;0.90;0.68;;;21.00;52.50;;;;;;6221378;28;20037;-67
2021/11/23 04:04:36;;;;;;;0.95;0.60;;;21.00;52.50;;;;;;6201187;28;20022;-68
2021/11/23 04:07:40;;;;;;;0.75;0.60;;;21.00;52.50;;;;;;6220048;28;20022;-69
2021/11/23 04:10:41;;;;;;;1.15;0.60;;;21.00;52.50;;;;;;6219351;28;20021;-68
2021/11/23 04:13:43;;;;;;;1.00;0.70;;;21.00;52.50;;;;;;6209788;28;20643;-68
2021/11/23 04:16:44;;;;;;;0.75;0.60;;;20.90;52.40;;;;;;6196280;28;20022;-68
2021/11/23 04:19:45;;;;;;;1.00;0.68;;;21.00;52.50;;;;;;6213749;28;20036;-68
2021/11/23 04:22:46;;;;;;;1.33;0.60;;;21.00;52.60;;;;;;6218059;28;20128;-68
2021/11/23 04:25:46;;;;;;;1.00;0.60;;;21.00;52.50;;;;;;6196315;28;20609;-68
2021/11/23 04:28:47;;;;;;;1.20;0.70;;;21.00;52.60;;;;;;6194154;28;20022;-68
2021/11/23 04:31:48;;;;;;;0.73;0.60;;;21.00;52.60;;;;;;6199442;28;20121;-67
2021/11/23 04:34:48;;;;;;;0.85;0.60;;;21.00;52.50;;;;;;6219931;28;20034;-68
2021/11/23 04:37:49;;;;;;;0.52;0.50;;;20.90;52.50;;;;;;6206122;28;20823;-68
2021/11/23 04:40:50;;;;;;;0.63;0.60;;;20.90;52.50;;;;;;6195430;28;20887;-68
2021/11/23 04:43:52;;;;;;;0.68;0.50;;;20.90;52.50;;;;;;6194739;28;20049;-68
2021/11/23 04:46:52;;;;;;;0.70;0.52;;;21.00;52.60;;;;;;6199620;28;20080;-67
2021/11/23 04:49:53;;;;;;;1.45;0.73;;;20.90;52.50;;;;;;6219829;28;20030;-68
2021/11/23 04:52:54;;;;;;;1.00;0.60;;;20.90;52.50;;;;;;6219390;28;20080;-68
2021/11/23 04:55:55;;;;;;;0.40;0.40;;;20.90;52.50;;;;;;6219372;28;20080;-68
2021/11/23 04:58:56;;;;;;;0.80;0.55;;;20.90;52.50;;;;;;6200437;28;20101;-70
2021/11/23 05:01:56;;;;;;;0.90;0.63;;;20.90;52.40;;;;;;6197946;28;20030;-68
2021/11/23 05:04:57;;;;;;;1.10;0.73;;;20.90;52.40;;;;;;6217833;28;20376;-67
2021/11/23 05:07:58;;;;;;;0.93;0.50;;;20.90;52.50;;;;;;6209629;28;20440;-68
2021/11/23 05:10:58;;;;;;;0.60;0.57;;;20.90;52.50;;;;;;6195360;28;20427;-65
2021/11/23 05:13:59;;;;;;;0.85;0.57;;;20.90;52.40;;;;;;6195619;28;20156;-65
2021/11/23 05:17:00;;;;;;;0.85;0.60;;;20.90;52.50;;;;;;6194498;28;20037;-68
2021/11/23 05:20:00;;;;;;;0.98;0.57;;;20.90;52.50;;;;;;6196036;28;20022;-69
2021/11/23 05:23:01;;;;;;;0.57;0.50;;;20.90;52.50;;;;;;6202965;28;20031;-67
2021/11/23 05:26:02;;;;;;;0.82;0.40;;;20.90;52.40;;;;;;6194638;28;20026;-66
2021/11/23 05:29:04;;;;;;;1.13;0.52;;;20.90;52.50;;;;;;6219691;28;20057;-68
2021/11/23 05:32:05;;;;;;;0.45;0.43;;;20.90;52.50;;;;;;6187197;28;20299;-65
2021/11/23 05:35:07;;;;;;;0.50;0.50;;;20.90;52.50;;;;;;6197163;28;20057;-68
2021/11/23 05:38:08;;;;;;;1.95;0.60;;;20.90;52.50;;;;;;6210514;28;20108;-69
2021/11/23 05:41:09;;;;;;;0.38;0.32;;;20.90;52.50;;;;;;6219160;28;20111;-68
2021/11/23 05:44:10;;;;;;;0.82;0.60;;;21.00;52.60;;;;;;6194842;28;20411;-69
2021/11/23 05:47:10;;;;;;;0.55;0.50;;;21.00;52.60;;;;;;6194046;28;20027;-69
2021/11/23 05:50:11;;;;;;;0.68;0.50;;;20.90;52.50;;;;;;6209047;28;20026;-68
2021/11/23 05:53:12;;;;;;;1.95;0.65;;;20.90;52.50;;;;;;6208239;28;20025;-68
2021/11/23 05:56:12;;;;;;;0.90;0.60;;;20.90;52.50;;;;;;6217581;28;20048;-68
2021/11/23 05:59:14;;;;;;;0.88;0.50;;;20.90;52.50;;;;;;6217910;28;20521;-68
2021/11/23 06:02:14;;;;;;;0.85;0.63;;;20.90;52.50;;;;;;6209280;28;20052;-68
2021/11/23 06:05:15;;;;;;;1.38;0.77;;;20.90;52.50;;;;;;6218001;28;20041;-68
2021/11/23 06:08:16;;;;;;;0.82;0.60;;;21.00;52.60;;;;;;6216109;28;20116;-69
2021/11/23 06:11:17;;;;;;;0.47;0.40;;;20.90;52.50;;;;;;6217864;28;20022;-70
2021/11/23 06:14:18;;;;;;;0.40;0.40;;;21.00;52.60;;;;;;6202913;28;20535;-68
2021/11/23 06:17:19;;;;;;;0.93;0.50;;;20.90;52.60;;;;;;6193375;28;20562;-68
2021/11/23 06:20:19;;;;;;;0.50;0.40;;;20.90;52.60;;;;;;6214724;28;20026;-69
2021/11/23 06:23:21;;;;;;;0.90;0.40;;;20.90;52.50;;;;;;6217663;28;20117;-68
2021/11/23 06:26:22;;;;;;;1.45;0.70;;;21.00;52.60;;;;;;6217246;28;20375;-67
2021/11/23 06:29:23;;;;;;;1.48;0.80;;;21.00;52.50;;;;;;6217230;28;20025;-68
2021/11/23 06:32:24;;;;;;;0.55;0.50;;;21.00;52.50;;;;;;6202767;28;20505;-68
2021/11/23 06:35:24;;;;;;;1.17;0.50;;;21.00;52.40;;;;;;6217312;28;20121;-67
2021/11/23 06:38:25;;;;;;;0.68;0.47;;;21.00;52.40;;;;;;6213551;28;20026;-68
2021/11/23 06:41:25;;;;;;;1.00;0.63;;;21.00;52.30;;;;;;6193438;28;20515;-68
2021/11/23 06:44:26;;;;;;;0.40;0.40;;;21.00;52.40;;;;;;6217317;28;20022;-68
2021/11/23 06:47:27;;;;;;;0.77;0.50;;;21.00;52.40;;;;;;6208057;28;20022;-69
2021/11/23 06:50:32;;;;;;;0.90;0.47;;;21.00;52.70;;;;;;6191752;28;20427;-68
2021/11/23 06:53:32;;;;;;;0.75;0.50;;;21.00;52.50;;;;;;6208496;28;20072;-69
2021/11/23 06:56:33;;;;;;;0.90;0.60;;;21.00;52.40;;;;;;6217248;28;20034;-69
2021/11/23 06:59:34;;;;;;;0.68;0.43;;;21.00;52.50;;;;;;6172324;28;20088;-68
2021/11/23 07:02:35;;;;;;;0.30;0.30;;;21.00;52.50;;;;;;6190253;28;20318;-68
2021/11/23 07:05:36;;;;;;;0.75;0.40;;;21.00;52.50;;;;;;6199600;28;20022;-69
2021/11/23 07:08:36;;;;;;;0.40;0.40;;;21.00;52.50;;;;;;6194937;28;20081;-69
2021/11/23 07:11:37;;;;;;;0.45;0.40;;;21.00;52.50;;;;;;6194264;28;20118;-69
2021/11/23 07:14:38;;;;;;;0.30;0.30;;;21.00;52.40;;;;;;6194966;28;20062;-69
2021/11/23 07:17:39;;;;;;;1.13;0.55;;;21.00;52.50;;;;;;6194015;28;20023;-68
2021/11/23 07:20:40;;;;;;;0.88;0.60;;;21.00;52.50;;;;;;6195050;28;20122;-68
2021/11/23 07:23:41;;;;;;;0.52;0.50;;;21.00;52.50;;;;;;6208026;28;20058;-68
2021/11/23 07:26:42;;;;;;;0.88;0.50;;;21.00;52.50;;;;;;6206937;28;20025;-68
2021/11/23 07:29:43;;;;;;;1.05;0.40;;;21.00;52.50;;;;;;6217629;28;20037;-67
2021/11/23 07:32:44;;;;;;;1.00;0.50;;;21.00;52.60;;;;;;6194461;28;20038;-68
2021/11/23 07:35:44;;;;;;;1.38;0.52;;;21.00;52.50;;;;;;6194733;28;20501;-68
2021/11/23 07:38:46;;;;;;;1.13;0.68;;;21.00;52.60;;;;;;6214819;28;20026;-68
2021/11/23 07:41:47;;;;;;;1.50;0.50;;;21.00;52.50;;;;;;6219301;28;20446;-68
2021/11/23 07:44:48;;;;;;;0.88;0.50;;;21.00;52.60;;;;;;6217519;28;20030;-68
2021/11/23 07:47:48;;;;;;;0.45;0.30;;;21.00;52.60;;;;;;6218798;28;20037;-68
2021/11/23 07:50:49;;;;;;;0.50;0.50;;;21.00;52.60;;;;;;6219024;28;20057;-68
2021/11/23 07:53:50;;;;;;;1.00;0.63;;;21.00;52.60;;;;;;6198960;28;20023;-68
2021/11/23 07:56:51;;;;;;;1.13;0.50;;;21.00;52.60;;;;;;6194825;28;20519;-68
2021/11/23 07:59:51;;;;;;;0.80;0.55;;;21.00;52.60;;;;;;6194695;28;20052;-68
2021/11/23 08:02:53;;;;;;;0.47;0.47;;;21.00;52.60;;;;;;6219828;28;20376;-68
2021/11/23 08:05:53;;;;;;;0.77;0.60;;;21.00;53.20;;;;;;6219096;28;20060;-68
2021/11/23 08:08:54;;;;;;;1.13;0.65;;;21.00;52.60;;;;;;6218766;28;20488;-68
2021/11/23 08:11:55;;;;;;;1.30;0.70;;;21.00;52.60;;;;;;6218827;28;20467;-68
2021/11/23 08:14:55;;;;;;;1.25;0.60;;;21.00;52.60;;;;;;6196202;28;20129;-68
2021/11/23 08:17:56;;;;;;;0.52;0.40;;;21.00;52.60;;;;;;6200127;28;20030;-68
2021/11/23 08:20:57;;;;;;;0.50;0.40;;;21.00;52.60;;;;;;6223775;28;20025;-68
2021/11/23 08:23:58;;;;;;;0.88;0.60;;;21.00;53.20;;;;;;6209913;28;20507;-68
2021/11/23 08:26:59;;;;;;;0.60;0.50;;;21.00;52.60;;;;;;6217812;28;20026;-68
2021/11/23 08:30:00;;;;;;;0.93;0.60;;;21.00;52.60;;;;;;6218681;28;20033;-68
2021/11/23 08:33:00;;;;;;;0.47;0.40;;;21.00;52.60;;;;;;6229537;28;20026;-68
2021/11/23 08:36:01;;;;;;;0.80;0.50;;;21.00;52.60;;;;;;6221543;28;20088;-68
2021/11/23 08:39:03;;;;;;;0.70;0.60;;;21.00;52.60;;;;;;6222357;28;20026;-69
2021/11/23 08:42:04;;;;;;;0.77;0.43;;;21.00;52.60;;;;;;6222530;28;20029;-68
2021/11/23 08:45:06;;;;;;;0.80;0.47;;;21.00;52.60;;;;;;6222747;28;20053;-69
2021/11/23 08:48:08;;;;;;;0.75;0.60;;;21.00;52.60;;;;;;6208418;28;20026;-68
2021/11/23 08:51:12;;;;;;;0.63;0.40;;;21.00;52.60;;;;;;6198828;28;20420;-68
2021/11/23 08:54:13;;;;;;;1.10;0.63;;;21.00;52.60;;;;;;6220455;28;20026;-68
2021/11/23 08:57:14;;;;;;;0.80;0.70;;;21.00;52.60;;;;;;6222319;28;20462;-68
2021/11/23 09:00:19;;;;;;;0.60;0.57;;;21.00;52.60;;;;;;6222429;28;20324;-69
2021/11/23 09:03:20;;;;;;;1.13;0.68;;;21.00;52.60;;;;;;6222422;28;20447;-68
2021/11/23 09:06:23;;;;;;;0.50;0.50;;;21.00;52.60;;;;;;6221374;28;20061;-68
2021/11/23 09:09:27;;;;;;;2.22;0.50;;;21.00;52.60;;;;;;6222044;28;20033;-68
2021/11/23 09:12:27;;;;;;;1.30;0.70;;;21.00;52.60;;;;;;6222596;28;20479;-68
2021/11/23 09:15:29;;;;;;;0.82;0.60;;;21.00;52.60;;;;;;6197934;28;20069;-68
2021/11/23 09:18:29;;;;;;;0.65;0.50;;;21.00;52.60;;;;;;6206891;28;20065;-69
2021/11/23 09:21:30;;;;;;;0.45;0.40;;;21.00;52.60;;;;;;6222109;28;20518;-68
2021/11/23 09:24:31;;;;;;;0.85;0.60;;;21.00;52.60;;;;;;6204652;28;20507;-68
2021/11/23 09:27:32;;;;;;;1.05;0.57;;;21.00;52.60;;;;;;6209730;28;20464;-69
2021/11/23 09:30:34;;;;;;;0.60;0.45;;;21.00;52.60;;;;;;6191957;28;20287;-68
2021/11/23 09:33:34;;;;;;;0.47;0.40;;;21.00;52.60;;;;;;6215228;28;20133;-69
2021/11/23 09:36:35;;;;;;;2.28;0.60;;;21.00;52.60;;;;;;6202493;28;20030;-68
2021/11/23 09:39:36;;;;;;;1.02;0.52;;;21.00;52.60;;;;;;6219685;28;20037;-70
2021/11/23 09:42:37;;;;;;;3.45;1.10;;;21.00;52.60;;;;;;6218924;28;20057;-69
2021/11/23 09:45:38;;;;;;;2.25;0.80;;;21.00;52.30;;;;;;6219274;28;20100;-69
2021/11/23 09:48:41;;;;;;;6.97;1.10;;;21.00;52.30;;;;;;6203081;28;20023;-69
2021/11/23 09:51:43;;;;;;;2.05;0.90;;;21.00;52.30;;;;;;6212890;28;20018;-69
2021/11/23 09:54:44;;;;;;;2.25;0.73;;;21.00;52.40;;;;;;6199087;28;20025;-69
2021/11/23 09:57:45;;;;;;;1.73;0.93;;;21.00;52.40;;;;;;6217919;28;20022;-69
2021/11/23 10:00:49;;;;;;;3.00;1.00;;;21.00;52.40;;;;;;6234540;28;20092;-69
2021/11/23 10:03:50;;;;;;;0.88;0.60;;;21.00;52.30;;;;;;6217872;28;20062;-69
2021/11/23 10:06:57;;;;;;;1.13;0.80;;;21.00;52.30;;;;;;6199101;28;20443;-70
2021/11/23 10:10:18;;;;;;;1.35;0.80;;;21.00;52.30;;;;;;6218315;28;20032;-69
2021/11/23 10:13:21;;;;;;;1.65;0.80;;;21.00;52.20;;;;;;6218624;28;20515;-69
2021/11/23 10:16:22;;;;;;;3.10;1.02;;;21.00;52.20;;;;;;6206108;28;20027;-69
2021/11/23 10:19:36;;;;;;;1.35;0.90;;;21.00;52.20;;;;;;6208710;28;20026;-69
2021/11/23 10:22:38;;;;;;;2.00;0.93;;;21.00;52.20;;;;;;6219190;28;20040;-71
2021/11/23 10:25:39;;;;;;;1.42;0.90;;;21.00;52.20;;;;;;6201637;28;20459;-69
2021/11/23 10:28:49;;;;;;;1.90;0.73;;;21.00;52.20;;;;;;6216442;28;20467;-69
2021/11/23 10:31:50;;;;;;;2.55;0.68;;;21.00;52.20;;;;;;6202503;28;20510;-69
2021/11/23 10:34:50;;;;;;;1.27;0.77;;;21.00;52.20;;;;;;6202901;28;20033;-69
2021/11/23 10:37:53;;;;;;;1.95;0.73;;;21.00;52.30;;;;;;6199810;28;20427;-69
2021/11/23 10:40:54;;;;;;;2.25;1.40;;;21.00;52.30;;;;;;6184079;28;20060;-69
2021/11/23 10:43:55;;;;;;;2.05;0.95;;;21.00;52.30;;;;;;6195483;28;20100;-69
2021/11/23 10:47:07;;;;;;;1.88;0.95;;;21.00;52.40;;;;;;6198814;28;20031;-70
2021/11/23 10:50:10;;;;;;;2.15;0.88;;;21.00;52.40;;;;;;6199808;28;20029;-70
2021/11/23 10:53:13;;;;;;;2.28;0.70;;;21.00;52.40;;;;;;6206420;28;20034;-69
2021/11/23 10:56:19;;;;;;;4.10;0.82;;;21.00;52.50;;;;;;6208608;28;20250;-70
2021/11/23 10:59:20;;;;;;;5.30;1.70;;;21.00;52.50;;;;;;6200642;28;20730;-70
2021/11/23 11:02:20;;;;;;;5.13;1.15;;;21.00;52.60;;;;;;6216607;28;20454;-69
2021/11/23 11:05:22;;;;;;;4.70;1.10;;;21.00;52.70;;;;;;6192332;28;20030;-69
2021/11/23 11:08:26;;;;;;;2.40;1.20;;;21.10;52.80;;;;;;6191467;28;20410;-69
2021/11/23 11:11:27;;;;;;;2.10;0.98;;;21.00;52.70;;;;;;6196494;28;20026;-69
2021/11/23 11:14:35;;;;;;;2.78;1.00;;;21.10;52.80;;;;;;6196153;28;20057;-69
2021/11/23 11:17:39;;;;;;;1.80;0.90;;;21.10;52.80;;;;;;6201970;28;20061;-70
2021/11/23 11:20:55;;;;;;;2.17;1.07;;;21.10;52.80;;;;;;6197554;28;20458;-69
2021/11/23 11:24:22;;;;;;;1.52;0.80;;;21.10;52.80;;;;;;6203202;28;20289;-69
2021/11/23 11:27:33;;;;;;;1.85;1.10;;;21.10;52.80;;;;;;6203116;28;20038;-69
2021/11/23 11:30:41;;;;;;;2.55;1.10;;;21.10;52.80;;;;;;6196731;28;20075;-69
2021/11/23 11:33:42;;;;;;;2.15;1.00;;;21.10;52.80;;;;;;6212362;28;20503;-69
2021/11/23 11:36:44;;;;;;;1.27;0.80;;;21.10;52.80;;;;;;6204302;28;20026;-68
2021/11/23 11:39:47;;;;;;;1.70;0.80;;;21.10;52.80;;;;;;6200072;28;20439;-69
2021/11/23 11:42:50;;;;;;;3.40;0.95;;;21.00;52.80;;;;;;6209386;28;20388;-69
2021/11/23 11:45:51;;;;;;;1.98;0.77;;;21.10;52.90;;;;;;6222530;28;20014;-69
2021/11/23 11:48:52;;;;;;;1.27;0.68;;;21.10;52.90;;;;;;6202443;28;20118;-70
2021/11/23 11:52:02;;;;;;;6.63;2.78;;;21.10;52.90;;;;;;6214584;28;20128;-69
2021/11/23 11:55:12;;;;;;;4.55;2.60;;;21.10;53.00;;;;;;6201599;28;20076;-69
2021/11/23 11:58:13;;;;;;;3.55;1.77;;;21.10;53.10;;;;;;6197902;28;20523;-68
2021/11/23 12:01:26;;;;;;;8.95;1.80;;;21.10;53.00;;;;;;6205286;28;20026;-71
2021/11/23 12:04:31;;;;;;;4.50;1.88;;;21.10;53.00;;;;;;6202863;28;20027;-71
2021/11/23 12:07:41;;;;;;;4.20;1.60;;;21.10;53.00;;;;;;6193666;28;20118;-71
2021/11/23 12:10:46;;;;;;;3.83;1.90;;;21.10;53.00;;;;;;6207385;28;20116;-71
2021/11/23 12:13:54;;;;;;;2.15;1.50;;;21.10;53.00;;;;;;6212300;28;20081;-71
2021/11/23 12:17:05;;;;;;;1.92;1.17;;;21.20;53.00;;;;;;6211294;28;20117;-70
2021/11/23 12:20:08;;;;;;;3.85;1.70;;;21.20;52.90;;;;;;6217161;28;20022;-71
2021/11/23 12:23:38;;;;;;;2.10;1.10;;;21.20;52.90;;;;;;6212149;28;20026;-71
2021/11/23 12:26:38;;;;;;;2.22;1.42;;;21.20;52.80;;;;;;6218413;28;20037;-71
2021/11/23 12:29:40;;;;;;;2.63;1.30;;;21.20;52.70;;;;;;6205643;28;20026;-71
2021/11/23 12:32:42;;;;;;;1.77;1.00;;;21.20;52.70;;;;;;6204973;28;20028;-71
2021/11/23 12:35:43;;;;;;;5.88;1.10;;;21.30;53.40;;;;;;6217799;28;20495;-71
2021/11/23 12:38:45;;;;;;;6.88;1.30;;;21.30;52.90;;;;;;6192339;28;20027;-71
2021/11/23 12:41:49;;;;;;;4.93;1.08;;;21.30;52.90;;;;;;6215220;28;20022;-70
2021/11/23 12:44:50;;;;;;;4.43;1.23;;;21.20;52.90;;;;;;6203726;28;20030;-71
2021/11/23 12:47:50;;;;;;;3.00;1.05;;;21.20;53.00;;;;;;6207311;28;20245;-71
2021/11/23 12:50:51;;;;;;;8.13;1.52;;;21.20;52.90;;;;;;6208019;28;20120;-68
2021/11/23 12:53:55;;;;;;;10.05;1.20;;;21.20;53.00;;;;;;6201349;28;20034;-71
2021/11/23 12:57:05;;;;;;;1.90;0.90;;;21.20;53.00;;;;;;6197501;28;20033;-71
2021/11/23 13:00:07;;;;;;;5.85;1.00;;;21.20;53.10;;;;;;6201188;28;20038;-71
2021/11/23 13:03:10;;;;;;;1.77;0.90;;;21.20;53.10;;;;;;6206279;28;20140;-72
2021/11/23 13:06:11;;;;;;;3.72;1.10;;;21.20;53.10;;;;;;6203627;28;20089;-71
2021/11/23 13:09:11;;;;;;;5.38;1.00;;;21.20;53.10;;;;;;6204671;28;20027;-71
2021/11/23 13:12:12;;;;;;;1.50;0.90;;;21.20;53.10;;;;;;6193566;28;20547;-71
2021/11/23 13:15:23;;;;;;;3.22;1.02;;;21.20;53.20;;;;;;6219753;28;20503;-71
2021/11/23 13:18:29;;;;;;;2.25;0.85;;;21.20;53.20;;;;;;6201247;28;20076;-71
2021/11/23 13:21:30;;;;;;;3.45;1.10;;;21.20;53.20;;;;;;6205808;28;20480;-70
2021/11/23 13:24:30;;;;;;;2.45;0.95;;;21.20;53.20;;;;;;6198725;28;20034;-71
2021/11/23 13:27:32;;;;;;;0.90;0.70;;;21.20;53.20;;;;;;6204720;28;20022;-71
2021/11/23 13:30:44;;;;;;;5.80;1.10;;;21.10;53.10;;;;;;6195452;28;20033;-71
2021/11/23 13:33:52;;;;;;;3.13;1.02;;;21.10;53.20;;;;;;6210627;28;20126;-70
2021/11/23 13:36:56;;;;;;;2.28;1.08;;;21.20;53.30;;;;;;6225141;28;20096;-71
2021/11/23 13:40:26;;;;;;;1.35;0.95;;;21.20;53.30;;;;;;6193536;28;20048;-71
2021/11/23 13:43:28;;;;;;;3.53;0.95;;;21.10;53.20;;;;;;6199978;28;20026;-72
2021/11/23 13:47:01;;;;;;;3.20;1.10;;;21.20;53.30;;;;;;6229712;28;20022;-71
2021/11/23 13:50:06;;;;;;;8.68;2.28;;;21.20;53.30;;;;;;6193601;28;20113;-71
2021/11/23 13:53:07;;;;;;;;;;;21.20;53.50;;;;;;6203421;28;20026;-71
2021/11/23 13:56:12;;;;;;;3.03;1.30;;;21.20;53.50;;;;;;6234912;28;19913;-72
2021/11/23 13:59:16;;;;;;;3.55;1.60;;;21.20;53.40;;;;;;6193749;28;20035;-71
2021/11/23 14:02:17;;;;;;;4.80;2.22;;;21.10;53.40;;;;;;6211927;28;20061;-71
2021/11/23 14:05:40;;;;;;;3.00;1.65;;;21.20;53.50;;;;;;6219097;28;20030;-72
2021/11/23 14:08:40;;;;;;;2.42;1.48;;;21.10;53.50;;;;;;6194325;28;20033;-72
2021/11/23 14:12:02;;;;;;;5.00;1.80;;;21.10;53.50;;;;;;6205889;28;20034;-72
2021/11/23 14:15:20;;;;;;;5.90;1.35;;;21.20;53.50;;;;;;6194960;28;20294;-72
2021/11/23 14:18:28;;;;;;;3.42;1.38;;;21.10;53.40;;;;;;6193897;28;20037;-72
2021/11/23 14:21:30;;;;;;;2.15;1.27;;;21.20;53.50;;;;;;6217766;28;20026;-72
2021/11/23 14:24:37;;;;;;;3.70;1.00;;;21.20;53.50;;;;;;6209080;28;20459;-72
2021/11/23 14:28:07;;;;;;;3.08;1.33;;;21.10;53.40;;;;;;6210473;28;20025;-72
2021/11/23 14:31:08;;;;;;;5.20;1.20;;;21.20;53.50;;;;;;6201374;28;20030;-72
2021/11/23 14:34:13;;;;;;;4.57;1.00;;;21.20;53.50;;;;;;6212230;28;20022;-71
2021/11/23 14:37:14;;;;;;;6.25;1.30;;;21.20;53.50;;;;;;6212720;28;20084;-72
2021/11/23 14:40:15;;;;;;;2.47;1.20;;;21.20;53.50;;;;;;6201842;28;20030;-72
2021/11/23 14:43:16;;;;;;;2.47;1.30;;;21.10;53.40;;;;;;6197802;28;20085;-72
2021/11/23 14:46:17;;;;;;;1.90;0.90;;;21.20;53.50;;;;;;6212211;28;20041;-72
2021/11/23 14:49:18;;;;;;;4.03;1.02;;;21.20;53.40;;;;;;6195248;28;20491;-72
2021/11/23 14:52:19;;;;;;;2.60;1.23;;;21.10;53.30;;;;;;6209603;28;20085;-72
2021/11/23 14:55:20;;;;;;;4.28;1.45;;;21.20;53.40;;;;;;6230849;28;20525;-71
2021/11/23 14:58:20;;;;;;;2.42;1.20;;;21.10;53.30;;;;;;6201722;28;20026;-71
2021/11/23 15:01:22;;;;;;;1.98;1.10;;;21.10;53.40;;;;;;6225660;28;20087;-71
2021/11/23 15:04:23;;;;;;;2.05;1.20;;;21.20;53.50;;;;;;6217345;28;20424;-70
2021/11/23 15:07:24;;;;;;;1.58;1.00;;;21.10;53.40;;;;;;6191438;28;20033;-70
2021/11/23 15:10:25;;;;;;;3.00;1.30;;;21.20;53.40;;;;;;6208258;28;20023;-71
2021/11/23 15:13:26;;;;;;;1.83;1.38;;;21.10;53.40;;;;;;6193841;28;20072;-71
2021/11/23 15:16:28;;;;;;;4.32;1.75;;;21.10;53.40;;;;;;6202007;28;20040;-71
2021/11/23 15:19:29;;;;;;;2.08;1.20;;;21.10;52.70;;;;;;6198787;28;20058;-71
2021/11/23 15:22:30;;;;;;;6.68;1.63;;;21.10;52.60;;;;;;6214981;28;20634;-70
2021/11/23 15:25:31;;;;;;;2.75;1.20;;;21.10;52.80;;;;;;6192882;28;20040;-71
2021/11/23 15:28:33;;;;;;;5.85;1.15;;;21.10;52.70;;;;;;6217934;28;20022;-71
2021/11/23 15:31:34;;;;;;;1.85;1.20;;;21.10;52.60;;;;;;6228388;28;20030;-68
2021/11/23 15:34:35;;;;;;;2.72;1.50;;;21.10;52.60;;;;;;6215455;28;20057;-69
2021/11/23 15:37:38;;;;;;;3.13;1.52;;;21.10;52.60;;;;;;6198013;28;20037;-69
2021/11/23 15:40:39;;;;;;;3.58;1.75;;;21.10;52.50;;;;;;6214056;28;20026;-70
2021/11/23 15:43:40;;;;;;;18.13;2.50;;;21.10;52.30;;;;;;6211021;28;20018;-72
2021/11/23 15:46:41;;;;;;;10.90;2.28;;;21.10;51.20;;;;;;6218750;28;20065;-71
2021/11/23 15:49:42;;;;;;;10.98;2.35;;;21.10;51.20;;;;;;6205676;28;20392;-71
2021/11/23 15:52:43;;;;;;;9.32;2.17;;;21.00;51.20;;;;;;6221517;28;20026;-68